Time;durP1;ratioP1;P1;durP2;ratioP2;P2;SDS_P1;SDS_P2;PMS_P1;PMS_P2;Temp;Humidity;BMP_temperature;BMP_pressure;BME280_temperature;BME280_humidity;BME280_pressure;Samples;Min_cycle;Max_cycle;Signal;HPM_P1;HPM_P2
2022/06/09 00:00:16;;;;;;;18.00;11.77;;;18.60;99.90;;;18.97;78.45;94388.31;5080088;28;20477;-56
2022/06/09 00:02:45;;;;;;;15.47;11.77;;;18.60;99.90;;;18.96;78.30;94392.00;5080091;28;20485;-56
2022/06/09 00:05:13;;;;;;;20.13;11.90;;;18.60;99.90;;;18.94;78.70;94384.22;5083321;28;20474;-57
2022/06/09 00:07:40;;;;;;;13.87;11.63;;;18.50;99.90;;;18.94;78.68;94386.88;5076690;28;20493;-55
2022/06/09 00:10:11;;;;;;;17.93;11.47;;;18.50;99.90;;;18.93;78.86;94392.41;5078990;28;20478;-55
2022/06/09 00:12:38;;;;;;;14.60;12.20;;;18.50;99.90;;;18.91;78.81;94395.28;5069907;28;20822;-55
2022/06/09 00:15:08;;;;;;;18.20;12.47;;;18.50;99.90;;;18.86;78.36;94391.59;5077857;28;20482;-57
2022/06/09 00:17:37;;;;;;;15.80;11.73;;;18.50;99.90;;;18.83;78.09;94391.97;5073663;28;20537;-57
2022/06/09 00:20:06;;;;;;;14.87;12.10;;;18.40;99.90;;;18.80;78.46;94382.53;5077303;28;20986;-57
2022/06/09 00:22:33;;;;;;;12.73;10.47;;;18.40;99.90;;;18.76;79.05;94387.44;5068758;28;20462;-55
2022/06/09 00:25:00;;;;;;;25.43;12.70;;;18.40;99.90;;;18.76;79.07;94386.59;5074212;28;20865;-55
2022/06/09 00:27:28;;;;;;;14.70;10.67;;;18.40;99.90;;;18.75;79.12;94385.00;5073181;28;20544;-56
2022/06/09 00:29:55;;;;;;;19.03;10.13;;;18.40;99.90;;;18.73;78.59;94379.03;5070777;28;20486;-55
2022/06/09 00:32:22;;;;;;;15.57;10.97;;;18.30;99.90;;;18.72;78.65;94383.53;5074983;28;20573;-57
2022/06/09 00:34:51;;;;;;;15.53;10.03;;;18.30;99.90;;;18.70;78.79;94369.59;5071570;28;20481;-56
2022/06/09 00:37:18;;;;;;;19.83;9.40;;;18.30;99.90;;;18.70;79.17;94377.59;5071420;28;20838;-55
2022/06/09 00:39:45;;;;;;;11.10;9.90;;;18.30;99.90;;;18.69;78.78;94375.13;5072291;28;20478;-56
2022/06/09 00:42:13;;;;;;;16.03;9.70;;;18.30;99.90;;;18.68;78.60;94370.81;5068884;28;20450;-55
2022/06/09 00:44:40;;;;;;;12.03;9.77;;;18.30;99.90;;;18.67;78.97;94367.34;5065800;28;20496;-56
2022/06/09 00:47:10;;;;;;;18.60;10.53;;;18.30;99.90;;;18.68;78.54;94371.63;5069559;28;20459;-56
2022/06/09 00:49:40;;;;;;;16.63;10.73;;;18.30;99.90;;;18.66;79.07;94359.56;5069775;28;20485;-56
2022/06/09 00:52:10;;;;;;;15.77;11.73;;;18.30;99.90;;;18.63;78.87;94355.44;5070191;28;20512;-55
2022/06/09 00:54:39;;;;;;;16.30;11.23;;;18.30;99.90;;;18.62;78.53;94364.44;5080487;28;20534;-56
2022/06/09 00:57:14;;;;;;;21.70;12.60;;;18.30;99.90;;;18.60;78.43;94356.66;5081754;28;20509;-54
2022/06/09 00:59:42;;;;;;;15.43;12.80;;;18.20;99.90;;;18.58;78.47;94360.56;5076749;28;20508;-55
2022/06/09 01:02:10;;;;;;;14.93;11.73;;;18.20;99.90;;;18.59;79.08;94364.84;5080381;28;20461;-56
2022/06/09 01:04:37;;;;;;;15.03;13.07;;;18.20;99.90;;;18.55;78.60;94369.78;5080341;28;20493;-56
2022/06/09 01:07:08;;;;;;;17.30;14.97;;;18.20;99.90;;;18.54;79.06;94369.97;5079990;28;20459;-56
2022/06/09 01:09:36;;;;;;;15.70;12.83;;;18.20;99.90;;;18.52;79.14;94364.84;5077437;28;20827;-55
2022/06/09 01:12:19;;;;;;;15.13;12.70;;;18.20;99.90;;;18.51;78.45;94368.53;5077799;28;21054;-54
2022/06/09 01:14:46;;;;;;;15.00;12.60;;;18.10;99.90;;;18.49;78.73;94365.25;5077018;28;20501;-56
2022/06/09 01:17:16;;;;;;;26.80;13.80;;;18.10;99.90;;;18.48;78.70;94363.59;5070716;28;20521;-55
2022/06/09 01:19:59;;;;;;;16.90;12.77;;;18.10;99.90;;;18.48;79.13;94360.94;5071042;28;20485;-55
2022/06/09 01:22:52;;;;;;;16.33;13.13;;;18.10;99.90;;;18.48;79.06;94362.78;5069047;28;20454;-55
2022/06/09 01:26:05;;;;;;;15.67;13.07;;;18.10;99.90;;;18.46;79.52;94361.13;5072677;28;20496;-56
2022/06/09 01:28:58;;;;;;;16.27;13.40;;;18.10;99.90;;;18.46;79.40;94365.66;5070743;28;20548;-56
2022/06/09 01:31:30;;;;;;;22.67;13.20;;;18.10;99.90;;;18.45;79.24;94359.50;5069530;28;20536;-55
2022/06/09 01:34:02;;;;;;;19.87;14.57;;;18.10;99.90;;;18.45;78.90;94364.00;5072782;28;20460;-55
2022/06/09 01:36:33;;;;;;;17.90;14.33;;;18.10;99.90;;;18.46;78.92;94360.31;5071862;28;20939;-53
2022/06/09 01:39:03;;;;;;;17.60;13.57;;;18.10;99.90;;;18.46;79.62;94347.81;5069888;28;20519;-54
2022/06/09 01:41:30;;;;;;;22.03;14.27;;;18.10;99.90;;;18.47;78.95;94346.00;5068900;28;20481;-55
2022/06/09 01:43:58;;;;;;;15.37;13.77;;;18.10;99.90;;;18.46;79.46;94339.84;5066904;28;20466;-54
2022/06/09 01:46:30;;;;;;;19.00;15.23;;;18.10;99.90;;;18.46;79.01;94347.81;5067785;28;20501;-54
2022/06/09 01:49:04;;;;;;;15.83;13.93;;;18.10;99.90;;;18.47;78.73;94346.00;5069520;28;20542;-53
2022/06/09 01:51:34;;;;;;;20.33;14.63;;;18.10;99.90;;;18.46;78.75;94350.47;5067380;28;20474;-55
2022/06/09 01:54:03;;;;;;;22.47;16.30;;;18.10;99.90;;;18.46;78.99;94357.66;5067509;28;20459;-55
2022/06/09 01:56:32;;;;;;;23.67;16.93;;;18.10;99.90;;;18.44;79.48;94357.06;5083643;28;20573;-52
2022/06/09 01:59:03;;;;;;;20.27;17.10;;;18.10;99.90;;;18.45;79.55;94356.00;5074882;28;20446;-55
2022/06/09 02:01:35;;;;;;;21.90;17.13;;;18.10;99.90;;;18.45;79.68;94359.50;5080127;28;20560;-53
2022/06/09 02:04:05;;;;;;;26.10;18.00;;;18.10;99.90;;;18.45;79.70;94343.53;5074953;28;20461;-55
2022/06/09 02:06:32;;;;;;;22.73;17.20;;;18.10;99.90;;;18.48;79.52;94344.16;5078828;28;20470;-54
2022/06/09 02:09:00;;;;;;;21.00;15.97;;;18.10;99.90;;;18.49;79.00;94349.28;5076246;28;20455;-54
2022/06/09 02:11:28;;;;;;;21.23;15.83;;;18.10;99.90;;;18.50;78.89;94352.75;5078733;28;20532;-54
2022/06/09 02:13:56;;;;;;;21.10;15.90;;;18.10;99.90;;;18.49;79.44;94354.59;5073480;28;20462;-54
2022/06/09 02:16:24;;;;;;;26.60;17.23;;;18.20;99.90;;;18.51;79.08;94359.72;5068146;28;20581;-53
2022/06/09 02:18:54;;;;;;;20.70;16.13;;;18.10;99.90;;;18.51;79.26;94349.88;5075323;28;20543;-55
2022/06/09 02:21:24;;;;;;;22.17;17.03;;;18.10;99.90;;;18.54;78.73;94348.66;5074034;28;20485;-53
2022/06/09 02:23:52;;;;;;;20.87;15.43;;;18.20;99.90;;;18.53;79.42;94357.66;5070218;28;20481;-54
2022/06/09 02:26:19;;;;;;;20.53;14.37;;;18.20;99.90;;;18.53;79.17;94366.50;5073326;28;20480;-54
2022/06/09 02:28:47;;;;;;;23.90;15.53;;;18.20;99.90;;;18.53;78.81;94363.84;5072756;28;21102;-54
2022/06/09 02:31:15;;;;;;;23.20;16.13;;;18.20;99.90;;;18.54;79.46;94362.78;5072648;28;21040;-53
2022/06/09 02:33:42;;;;;;;22.17;16.43;;;18.20;99.90;;;18.53;79.06;94363.84;5074566;28;20465;-53
2022/06/09 02:36:11;;;;;;;22.77;16.33;;;18.20;99.90;;;18.53;79.39;94358.50;5081695;28;20865;-55
2022/06/09 02:38:38;;;;;;;18.47;15.53;;;18.20;99.90;;;18.53;78.88;94368.31;5071394;28;20465;-55
2022/06/09 02:41:06;;;;;;;20.30;16.30;;;18.20;99.90;;;18.55;78.83;94372.44;5079817;28;20481;-54
2022/06/09 02:43:33;;;;;;;22.20;16.80;;;18.20;99.90;;;18.53;79.14;94369.16;5074151;28;20538;-54
2022/06/09 02:46:01;;;;;;;22.70;16.53;;;18.20;99.90;;;18.53;78.94;94363.84;5077272;28;20571;-54
2022/06/09 02:48:28;;;;;;;22.67;16.33;;;18.20;99.90;;;18.52;79.26;94361.38;5073616;28;20490;-54
2022/06/09 02:50:56;;;;;;;19.67;14.90;;;18.20;99.90;;;18.51;79.07;94367.72;5075063;28;20559;-53
2022/06/09 02:53:25;;;;;;;24.43;16.57;;;18.20;99.90;;;18.51;78.79;94368.53;5067605;28;20461;-54
2022/06/09 02:55:52;;;;;;;27.93;15.27;;;18.20;99.90;;;18.51;79.51;94365.06;5067602;28;20889;-53
2022/06/09 02:58:19;;;;;;;25.50;17.57;;;18.10;99.90;;;18.50;79.57;94360.72;5075057;28;20451;-56
2022/06/09 03:00:47;;;;;;;21.60;15.67;;;18.20;99.90;;;18.51;79.14;94363.19;5072875;28;20485;-56
2022/06/09 03:03:15;;;;;;;19.33;14.43;;;18.20;99.90;;;18.50;79.06;94366.06;5072273;28;20818;-54
2022/06/09 03:05:43;;;;;;;19.50;15.20;;;18.10;99.90;;;18.50;79.27;94371.38;5068010;28;20517;-54
2022/06/09 03:08:10;;;;;;;22.30;14.93;;;18.20;99.90;;;18.50;79.50;94366.91;5070435;28;20978;-54
2022/06/09 03:10:39;;;;;;;19.77;14.40;;;18.10;99.90;;;18.49;79.46;94370.56;5069984;28;20478;-54
2022/06/09 03:13:07;;;;;;;21.10;15.17;;;18.10;99.90;;;18.46;78.79;94363.00;5067064;28;20459;-52
2022/06/09 03:15:35;;;;;;;20.53;15.07;;;18.10;99.90;;;18.44;79.42;94359.72;5065765;28;20551;-53
2022/06/09 03:18:03;;;;;;;27.77;14.53;;;18.10;99.90;;;18.44;79.04;94367.72;5073800;28;20481;-55
2022/06/09 03:20:33;;;;;;;22.10;15.00;;;18.10;99.90;;;18.45;79.76;94364.84;5079703;28;20467;-53
2022/06/09 03:23:01;;;;;;;27.70;15.40;;;18.10;99.90;;;18.44;79.60;94367.72;5078584;28;20461;-56
2022/06/09 03:25:28;;;;;;;22.77;15.63;;;18.10;99.90;;;18.47;79.18;94372.63;5076407;28;20474;-53
2022/06/09 03:27:57;;;;;;;21.90;16.60;;;18.10;99.90;;;18.48;78.92;94371.59;5080381;28;20462;-55
2022/06/09 03:30:24;;;;;;;22.60;14.03;;;18.10;99.90;;;18.49;79.10;94365.25;5081236;28;20477;-53
2022/06/09 03:32:51;;;;;;;25.83;14.80;;;18.10;99.90;;;18.49;79.05;94365.25;5083060;28;20474;-54
2022/06/09 03:35:19;;;;;;;22.47;14.37;;;18.10;99.90;;;18.50;79.01;94366.06;5080924;28;20482;-54
2022/06/09 03:37:46;;;;;;;24.17;15.73;;;18.10;99.90;;;18.52;78.28;94374.69;5077370;28;20489;-54
2022/06/09 03:40:17;;;;;;;22.00;14.83;;;18.10;99.90;;;18.53;78.21;94368.31;5077368;28;20482;-55
2022/06/09 03:42:45;;;;;;;21.03;14.70;;;18.20;99.90;;;18.54;78.69;94373.44;5075675;28;20547;-52
2022/06/09 03:45:14;;;;;;;26.23;15.37;;;18.20;99.90;;;18.56;78.23;94370.59;5075727;28;20470;-53
2022/06/09 03:47:41;;;;;;;18.80;13.23;;;18.20;99.90;;;18.57;77.59;94373.03;5074609;28;20482;-55
2022/06/09 03:50:12;;;;;;;22.43;13.97;;;18.20;99.90;;;18.59;78.13;94375.50;5067729;28;20490;-52
2022/06/09 03:52:39;;;;;;;23.77;13.67;;;18.20;99.90;;;18.60;77.85;94375.31;5067442;28;20691;-53
2022/06/09 03:55:07;;;;;;;23.90;14.07;;;18.20;99.90;;;18.63;78.10;94364.25;5074922;28;20490;-55
2022/06/09 03:57:34;;;;;;;19.37;14.23;;;18.30;99.90;;;18.66;78.28;94373.69;5073374;28;20771;-53
2022/06/09 04:00:02;;;;;;;20.87;14.10;;;18.30;99.90;;;18.70;77.63;94371.44;5068785;28;20489;-54
2022/06/09 04:02:30;;;;;;;22.60;13.10;;;18.30;99.90;;;18.72;77.41;94372.06;5073247;28;20655;-55
2022/06/09 04:04:59;;;;;;;19.33;13.30;;;18.40;99.90;;;18.74;77.94;94368.16;5072334;28;20471;-55
2022/06/09 04:07:26;;;;;;;26.67;14.20;;;18.40;99.90;;;18.78;77.48;94368.59;5066468;28;20983;-54
2022/06/09 04:09:53;;;;;;;23.60;14.13;;;18.40;99.90;;;18.78;77.58;94372.06;5066584;28;20482;-52
2022/06/09 04:12:21;;;;;;;24.10;14.57;;;18.40;99.90;;;18.80;77.55;94370.00;5067511;28;20454;-55
2022/06/09 04:14:48;;;;;;;25.00;13.63;;;18.50;99.90;;;18.85;77.39;94366.78;5068974;28;20490;-54
2022/06/09 04:17:15;;;;;;;21.77;14.20;;;18.50;99.90;;;18.91;77.30;94362.47;5067025;28;20487;-54
2022/06/09 04:19:44;;;;;;;26.87;13.80;;;18.50;99.90;;;18.96;77.51;94376.00;5064489;28;20479;-53
2022/06/09 04:22:12;;;;;;;20.77;13.80;;;18.60;99.90;;;19.01;77.08;94375.41;5078386;28;20460;-55
2022/06/09 04:24:39;;;;;;;31.20;17.30;;;18.60;99.90;;;19.03;76.79;94365.38;5080250;28;21157;-53
2022/06/09 04:27:06;;;;;;;21.20;14.03;;;18.70;99.90;;;19.06;76.87;94364.97;5082246;28;21047;-56
2022/06/09 04:29:34;;;;;;;18.37;13.20;;;18.70;99.90;;;19.10;76.87;94368.84;5069615;28;20479;-53
2022/06/09 04:32:01;;;;;;;18.53;13.00;;;18.70;99.90;;;19.13;76.49;94357.75;5078749;28;20465;-52
2022/06/09 04:34:28;;;;;;;32.53;13.87;;;18.80;99.90;;;19.16;76.48;94363.53;5078865;28;20484;-53
2022/06/09 04:36:57;;;;;;;21.03;12.13;;;18.80;99.90;;;19.20;76.07;94363.94;5077148;28;21036;-52
2022/06/09 04:39:24;;;;;;;18.10;12.33;;;18.80;99.90;;;19.24;75.82;94364.31;5079674;28;20450;-52
2022/06/09 04:41:51;;;;;;;15.70;11.60;;;18.90;99.90;;;19.26;76.46;94365.78;5070986;28;20461;-58
2022/06/09 04:44:19;;;;;;;16.57;10.47;;;18.90;99.90;;;19.29;76.16;94367.22;5078905;28;20813;-53
2022/06/09 04:46:46;;;;;;;22.37;10.93;;;18.90;99.90;;;19.33;75.50;94368.44;5073166;28;20466;-53
2022/06/09 04:49:14;;;;;;;11.87;9.87;;;19.00;99.90;;;19.35;75.83;94369.06;5073067;28;20474;-54
2022/06/09 04:51:41;;;;;;;17.47;11.67;;;19.00;99.90;;;19.38;75.95;94362.47;5072499;28;20531;-54
2022/06/09 04:54:10;;;;;;;13.60;11.73;;;19.00;99.90;;;19.42;75.88;94369.03;5060953;28;20508;-55
2022/06/09 04:56:37;;;;;;;16.57;11.90;;;19.00;99.90;;;19.45;75.23;94360.63;5073742;28;20486;-53
2022/06/09 04:59:05;;;;;;;19.50;11.73;;;19.00;99.90;;;19.49;75.81;94359.19;5071223;28;20944;-54
2022/06/09 05:01:32;;;;;;;15.43;12.70;;;19.10;99.90;;;19.52;75.64;94367.59;5070202;28;20823;-54
2022/06/09 05:04:00;;;;;;;17.67;12.30;;;19.10;99.90;;;19.55;75.53;94355.69;5072299;28;20965;-54
2022/06/09 05:06:28;;;;;;;26.47;15.37;;;19.20;99.90;;;19.58;75.28;94357.09;5069339;28;20481;-53
2022/06/09 05:08:57;;;;;;;24.47;14.10;;;19.20;99.90;;;19.57;75.00;94360.81;5069054;28;20870;-55
2022/06/09 05:11:26;;;;;;;21.43;12.70;;;19.20;99.90;;;19.59;74.84;94364.09;5068337;28;20474;-55
2022/06/09 05:13:53;;;;;;;20.83;11.73;;;19.20;99.90;;;19.59;74.97;94356.91;5068656;28;20443;-56
2022/06/09 05:16:21;;;;;;;20.40;13.20;;;19.20;99.90;;;19.63;75.40;94349.31;5067261;28;20467;-56
2022/06/09 05:18:49;;;;;;;17.50;13.27;;;19.20;99.90;;;19.68;75.33;94350.31;5066852;28;20443;-57
2022/06/09 05:21:16;;;;;;;22.80;11.17;;;19.30;99.90;;;19.74;74.38;94355.88;5066219;28;20587;-54
2022/06/09 05:23:44;;;;;;;16.03;13.03;;;19.30;99.90;;;19.80;74.83;94355.03;5075446;28;20450;-54
2022/06/09 05:26:12;;;;;;;15.13;12.10;;;19.40;99.90;;;19.92;75.10;94353.34;5079145;28;20471;-54
2022/06/09 05:28:40;;;;;;;22.10;14.30;;;19.50;99.90;;;20.06;74.61;94352.28;5083951;28;20474;-55
2022/06/09 05:31:07;;;;;;;17.37;12.80;;;19.60;99.90;;;20.24;74.58;94364.13;5079429;28;20476;-55
2022/06/09 05:33:35;;;;;;;15.67;14.00;;;19.80;99.90;;;20.39;73.66;94351.31;5070333;28;20457;-54
2022/06/09 05:36:02;;;;;;;18.17;13.17;;;19.90;99.90;;;20.56;73.74;94356.97;5077568;28;20921;-55
2022/06/09 05:46:47;;;;;;;22.10;13.97;;;20.40;99.90;;;20.89;72.20;94347.16;5076328;28;20508;-54
2022/06/09 05:49:14;;;;;;;15.30;12.60;;;20.50;99.90;;;20.92;72.08;94346.72;5077661;28;20775;-53
2022/06/09 05:51:41;;;;;;;15.47;12.17;;;20.50;99.90;;;20.95;71.80;94356.97;5075383;28;20453;-55
2022/06/09 05:54:09;;;;;;;17.67;13.50;;;20.50;99.90;;;20.95;71.50;94352.44;5070664;28;20485;-56
2022/06/09 05:56:36;;;;;;;15.70;13.03;;;20.60;99.90;;;20.98;71.64;94356.53;5075294;28;20444;-53
2022/06/09 05:59:05;;;;;;;19.60;13.10;;;20.60;99.90;;;20.97;71.81;94346.88;5073462;28;20455;-55
2022/06/09 06:01:32;;;;;;;17.17;14.40;;;20.60;99.90;;;21.00;71.59;94359.00;5066904;28;20462;-53
2022/06/09 06:04:00;;;;;;;17.53;14.03;;;20.60;99.90;;;21.03;71.49;94354.03;5067539;28;20479;-55
2022/06/09 06:06:36;;;;;;;32.33;13.10;;;20.60;99.90;;;21.03;71.18;94354.03;5069641;28;20496;-53
2022/06/09 06:09:06;;;;;;;18.00;14.23;;;20.60;99.90;;;21.05;71.36;94351.13;5071522;28;20442;-52
2022/06/09 06:11:34;;;;;;;20.63;13.60;;;20.60;99.90;;;21.06;71.69;94352.78;5074132;28;20458;-55
2022/06/09 06:14:02;;;;;;;20.37;12.47;;;20.70;99.90;;;21.08;71.46;94356.84;5072518;28;20621;-53
2022/06/09 06:16:30;;;;;;;22.83;14.07;;;20.70;99.90;;;21.16;71.68;94352.28;5074540;28;20466;-54
2022/06/09 06:18:58;;;;;;;16.80;13.00;;;20.70;99.90;;;21.21;71.49;94345.25;5065120;28;20454;-53
2022/06/09 06:21:25;;;;;;;14.00;11.97;;;20.80;99.90;;;21.27;70.38;94348.88;5069822;28;20467;-55
2022/06/09 06:23:53;;;;;;;16.07;12.80;;;20.80;99.90;;;21.42;70.94;94345.88;5069341;28;20842;-53
2022/06/09 06:26:21;;;;;;;14.93;11.50;;;20.90;99.90;;;21.59;70.33;94346.97;5076059;28;20477;-54
2022/06/09 06:28:48;;;;;;;16.20;12.13;;;21.10;99.90;;;21.73;69.65;94336.94;5083801;28;20509;-55
2022/06/09 06:31:16;;;;;;;17.90;12.60;;;21.20;99.90;;;21.89;69.72;94334.72;5085095;28;20997;-54
2022/06/09 06:33:44;;;;;;;17.37;11.40;;;21.40;99.90;;;22.07;69.47;94348.09;5075498;28;20447;-55
2022/06/09 06:36:12;;;;;;;19.60;12.30;;;21.50;99.90;;;22.27;68.78;94336.34;5084523;28;20481;-55
2022/06/09 06:38:39;;;;;;;17.63;13.33;;;21.70;99.90;;;22.43;67.68;94333.06;5080731;28;20501;-53
2022/06/09 06:41:07;;;;;;;17.67;11.97;;;21.90;99.90;;;22.48;66.88;94332.38;5081328;28;21010;-54
2022/06/09 06:43:35;;;;;;;15.83;12.20;;;22.00;99.90;;;22.45;66.10;94328.31;5079621;28;20445;-54
2022/06/09 06:46:02;;;;;;;18.30;11.83;;;22.00;99.90;;;22.43;65.81;94322.34;5080260;28;20552;-53
2022/06/09 06:48:29;;;;;;;21.67;12.17;;;22.00;99.90;;;22.51;66.77;94326.56;5081484;28;20481;-54
2022/06/09 06:50:58;;;;;;;15.47;12.50;;;22.00;99.90;;;22.58;66.89;94327.28;5079859;28;20490;-53
2022/06/09 06:53:26;;;;;;;17.10;12.13;;;22.10;99.90;;;22.68;67.25;94332.94;5078064;28;20526;-53
2022/06/09 06:55:54;;;;;;;15.60;10.90;;;22.20;99.90;;;22.80;66.19;94330.25;5078890;28;20474;-54
2022/06/09 06:58:21;;;;;;;15.37;11.50;;;22.30;99.90;;;22.87;66.75;94325.63;5077544;28;20547;-54
2022/06/09 07:00:48;;;;;;;15.87;10.40;;;22.40;99.90;;;22.94;65.96;94335.44;5072136;28;20465;-53
2022/06/09 07:03:16;;;;;;;28.83;11.20;;;22.40;99.90;;;23.02;65.21;94322.53;5073553;28;20450;-53
2022/06/09 07:05:43;;;;;;;25.17;11.10;;;22.50;99.30;;;23.11;65.09;94331.06;5075567;28;20982;-54
2022/06/09 07:08:15;;;;;;;18.67;12.50;;;22.60;99.70;;;23.26;64.98;94327.94;5075248;28;20467;-54
2022/06/09 07:10:43;;;;;;;15.60;12.00;;;22.70;99.70;;;23.45;65.10;94328.63;5073874;28;20494;-56
2022/06/09 07:13:10;;;;;;;14.37;11.27;;;22.90;99.90;;;23.63;64.83;94331.22;5073887;28;20446;-54
2022/06/09 07:15:37;;;;;;;17.90;12.60;;;23.10;99.40;;;23.79;63.58;94326.19;5072825;28;20483;-55
2022/06/09 07:18:05;;;;;;;17.27;11.43;;;23.20;98.90;;;23.91;63.90;94321.63;5067743;28;20605;-57
2022/06/09 07:20:32;;;;;;;17.90;11.70;;;23.40;98.70;;;23.96;62.90;94321.72;5070643;28;20478;-56
2022/06/09 07:23:00;;;;;;;14.13;11.40;;;23.40;98.20;;;24.01;63.58;94314.84;5070501;28;20459;-54
2022/06/09 07:25:29;;;;;;;15.50;11.50;;;23.50;98.30;;;24.11;63.10;94317.75;5068710;28;21120;-56
2022/06/09 07:27:56;;;;;;;15.70;10.93;;;23.50;98.40;;;24.23;63.80;94315.84;5068987;28;20455;-57
2022/06/09 07:30:25;;;;;;;15.87;10.87;;;23.70;98.40;;;24.37;63.51;94313.69;5083498;28;20568;-56
2022/06/09 07:32:52;;;;;;;14.30;11.50;;;23.80;98.40;;;24.53;62.73;94312.91;5080508;28;20449;-54
2022/06/09 07:35:23;;;;;;;13.10;10.70;;;23.90;98.20;;;24.67;62.87;94313.47;5080437;28;20462;-54
2022/06/09 07:37:50;;;;;;;15.10;10.93;;;24.10;98.20;;;24.79;61.40;94316.09;5088010;28;20560;-57
2022/06/09 07:40:17;;;;;;;20.20;12.33;;;24.20;96.90;;;24.79;60.70;94310.72;5082753;28;21074;-54
2022/06/09 07:42:48;;;;;;;17.97;10.30;;;24.30;96.30;;;24.76;60.17;94305.00;5075082;28;20460;-54
2022/06/09 07:45:16;;;;;;;18.23;11.50;;;24.30;95.90;;;24.78;60.39;94294.81;5079413;28;20470;-53
2022/06/09 07:47:43;;;;;;;17.33;10.80;;;24.30;96.10;;;24.82;60.76;94290.59;5080988;28;20486;-54
2022/06/09 07:50:11;;;;;;;17.00;10.60;;;24.30;96.00;;;24.94;60.38;94288.66;5076148;28;20552;-54
2022/06/09 07:52:40;;;;;;;12.43;10.23;;;24.40;96.00;;;25.10;60.52;94289.72;5079463;28;20460;-56
2022/06/09 07:55:08;;;;;;;11.43;9.63;;;24.50;96.00;;;25.30;60.47;94291.09;5073630;28;20481;-57
2022/06/09 07:57:36;;;;;;;20.63;10.17;;;24.70;96.10;;;25.48;60.05;94290.03;5078215;28;20490;-55
2022/06/09 08:00:05;;;;;;;14.97;10.10;;;24.90;96.10;;;25.66;59.86;94292.44;5076648;28;20463;-55
2022/06/09 08:02:33;;;;;;;19.17;10.30;;;25.10;95.60;;;25.82;59.41;94281.88;5071770;28;20450;-56
2022/06/09 08:05:00;;;;;;;11.87;9.20;;;25.20;95.30;;;25.99;58.99;94287.25;5075308;28;20881;-57
2022/06/09 08:07:27;;;;;;;10.23;9.17;;;25.40;94.80;;;26.17;58.61;94281.53;5074703;28;20453;-55
2022/06/09 08:09:55;;;;;;;13.70;10.33;;;25.60;94.30;;;26.35;58.09;94272.28;5069077;28;20536;-56
2022/06/09 08:12:22;;;;;;;25.20;9.33;;;25.70;94.50;;;26.50;57.34;94277.03;5074048;28;20542;-57
2022/06/09 08:14:50;;;;;;;12.53;9.37;;;25.90;93.80;;;26.55;57.09;94271.69;5073158;28;20474;-54
2022/06/09 08:17:18;;;;;;;15.70;10.13;;;25.90;93.20;;;26.65;53.55;94276.38;5071349;28;20450;-55
2022/06/09 08:19:47;;;;;;;16.20;10.10;;;26.00;90.00;;;26.72;55.93;94276.19;5071158;28;20896;-55
2022/06/09 08:22:15;;;;;;;11.00;9.87;;;26.10;92.40;;;26.74;55.55;94269.50;5070013;28;20474;-57
2022/06/09 08:24:42;;;;;;;15.33;9.80;;;26.20;91.60;;;26.74;55.38;94266.78;5069799;28;20470;-53
2022/06/09 08:27:09;;;;;;;10.03;9.10;;;26.20;91.30;;;26.74;55.34;94266.78;5068479;28;20458;-60
2022/06/09 08:29:37;;;;;;;12.43;9.70;;;26.20;91.10;;;26.82;55.00;94260.91;5066699;28;20502;-56
2022/06/09 08:32:05;;;;;;;12.40;10.13;;;26.20;91.00;;;26.91;55.01;94263.13;5074491;28;20483;-56
2022/06/09 08:34:34;;;;;;;10.20;8.90;;;26.30;91.10;;;27.01;54.88;94263.22;5082323;28;20583;-56
2022/06/09 08:37:01;;;;;;;21.83;9.90;;;26.40;90.70;;;27.06;54.48;94257.88;5081817;28;20441;-53
2022/06/09 08:39:29;;;;;;;14.93;12.43;;;26.50;90.70;;;27.17;54.44;94254.19;5081877;28;20527;-53
2022/06/09 08:42:08;;;;;;;13.00;9.50;;;26.60;90.50;;;27.24;53.93;94258.56;5080231;28;20453;-54
2022/06/09 08:44:38;;;;;;;13.90;10.97;;;26.60;90.20;;;27.27;53.45;94258.84;5073234;28;20806;-54
2022/06/09 08:47:13;;;;;;;25.80;13.77;;;26.70;88.30;;;27.38;52.87;94250.84;5075117;28;20446;-54
2022/06/09 08:50:00;;;;;;;18.50;11.70;;;26.80;88.40;;;27.59;52.69;94249.06;5076071;28;20469;-56
2022/06/09 08:52:43;;;;;;;10.97;9.37;;;27.00;87.60;;;27.81;50.91;94247.03;5077550;28;20769;-55
2022/06/09 08:55:29;;;;;;;12.10;8.70;;;27.20;85.70;;;27.84;50.77;94243.81;5072230;28;20477;-55
2022/06/09 08:58:02;;;;;;;11.67;8.60;;;27.30;84.30;;;27.83;51.24;94241.38;5075803;28;20536;-55
2022/06/09 09:00:34;;;;;;;14.33;7.53;;;27.30;83.50;;;27.80;50.47;94234.59;5074959;28;20478;-54
2022/06/09 09:03:04;;;;;;;16.13;8.40;;;27.30;82.20;;;27.77;51.01;94232.41;5069246;28;20457;-54
2022/06/09 09:05:39;;;;;;;8.50;7.70;;;27.30;82.00;;;27.71;50.17;94225.34;5075907;28;20468;-56
2022/06/09 09:08:08;;;;;;;18.73;7.00;;;27.20;81.50;;;27.71;50.49;94219.94;5074107;28;20471;-55
2022/06/09 09:10:45;;;;;;;8.67;6.37;;;27.20;81.80;;;27.73;49.59;94217.78;5069768;28;20462;-54
2022/06/09 09:13:33;;;;;;;12.10;7.37;;;27.20;80.30;;;27.69;48.73;94209.41;5069275;28;20519;-55
2022/06/09 09:16:03;;;;;;;16.00;10.10;;;27.10;78.30;;;27.80;49.77;94215.66;5070956;28;20473;-54
2022/06/09 09:18:36;;;;;;;14.20;6.73;;;27.20;78.90;;;27.94;49.24;94215.19;5068727;28;20539;-54
2022/06/09 09:21:28;;;;;;;11.60;5.43;;;27.30;78.00;;;28.11;49.42;94218.50;5070259;28;20472;-54
2022/06/09 09:24:05;;;;;;;16.47;7.80;;;27.50;77.90;;;28.19;48.24;94209.88;5068047;28;20863;-56
2022/06/09 09:26:46;;;;;;;11.13;5.90;;;27.60;77.00;;;28.31;48.80;94206.94;5068381;28;20470;-55
2022/06/09 09:29:18;;;;;;;9.00;6.27;;;27.70;76.20;;;28.43;46.99;94214.81;5065985;28;20445;-55
2022/06/09 09:31:50;;;;;;;8.10;6.40;;;27.80;74.20;;;28.46;47.40;94203.47;5066606;28;20457;-56
2022/06/09 09:34:20;;;;;;;7.43;5.70;;;27.90;71.80;;;28.50;47.16;94196.41;5067566;28;20535;-55
2022/06/09 09:36:51;;;;;;;8.77;6.27;;;27.90;71.30;;;28.51;47.16;94192.63;5080096;28;20979;-56
2022/06/09 09:39:22;;;;;;;16.83;8.13;;;27.90;71.30;;;28.53;44.48;94182.34;5080927;28;21059;-57
2022/06/09 09:41:50;;;;;;;10.57;5.70;;;27.90;67.50;;;28.58;46.71;94185.09;5077533;28;20442;-53
2022/06/09 09:44:20;;;;;;;30.80;11.90;;;28.00;69.80;;;28.68;45.68;94189.69;5081302;28;20469;-55
2022/06/09 09:46:51;;;;;;;18.80;8.03;;;28.10;69.20;;;28.84;45.02;94176.97;5079562;28;20533;-55
2022/06/09 09:49:23;;;;;;;10.33;5.67;;;28.30;67.80;;;28.99;45.85;94184.28;5079302;28;20448;-56
2022/06/09 09:51:52;;;;;;;8.17;5.60;;;28.40;69.30;;;29.06;44.33;94189.41;5076918;28;20442;-56
2022/06/09 09:54:23;;;;;;;4.60;4.03;;;28.50;65.80;;;29.10;43.39;94179.66;5079271;28;20534;-54
2022/06/09 09:56:50;;;;;;;7.40;4.87;;;28.50;62.50;;;29.04;44.02;94181.56;5078283;28;20473;-55
2022/06/09 09:59:24;;;;;;;7.60;4.73;;;28.50;62.80;;;29.06;44.26;94178.56;5073413;28;20492;-55
2022/06/09 10:10:16;;;;;;;5.20;3.90;;;28.70;61.20;;;29.28;42.97;94159.31;5072515;28;20310;-55
2022/06/09 10:12:44;;;;;;;6.93;4.40;;;28.70;60.40;;;29.30;43.88;94149.84;5073236;28;20453;-55
2022/06/09 10:15:16;;;;;;;8.47;5.00;;;28.80;62.40;;;29.20;43.07;94168.81;5068947;28;20963;-56
2022/06/09 10:17:49;;;;;;;7.20;4.47;;;28.70;60.40;;;29.14;43.08;94159.06;5070422;28;20813;-55
2022/06/09 10:20:33;;;;;;;7.00;4.30;;;28.60;59.90;;;29.19;42.17;94150.94;5070838;28;20469;-54
2022/06/09 10:23:21;;;;;;;5.97;5.00;;;28.60;60.30;;;29.24;42.71;94147.44;5068336;28;20813;-54
2022/06/09 10:25:55;;;;;;;9.90;4.60;;;28.70;60.40;;;29.28;42.94;94143.91;5066428;28;20482;-57
2022/06/09 10:28:31;;;;;;;6.17;5.67;;;28.70;61.30;;;29.35;42.43;94142.81;5069233;28;20452;-55
2022/06/09 10:31:03;;;;;;;17.73;6.03;;;28.70;60.30;;;29.32;41.31;94142.25;5063327;28;20930;-53
2022/06/09 10:33:34;;;;;;;4.90;4.40;;;28.80;58.00;;;29.26;42.45;94140.63;5065772;28;20257;-53